sensor_id;sensor_type;location;lat;lon;timestamp;P1;durP1;ratioP1;P2;durP2;ratioP2
3643;SDS011;1838;50.742;7.158;2022-12-26T00:01:29;2.97;;;1.70;;
3643;SDS011;1838;50.742;7.158;2022-12-26T00:03:56;2.30;;;1.50;;
3643;SDS011;1838;50.742;7.158;2022-12-26T00:06:22;2.47;;;1.50;;
3643;SDS011;1838;50.742;7.158;2022-12-26T00:08:50;2.30;;;1.63;;
3643;SDS011;1838;50.742;7.158;2022-12-26T00:11:17;2.07;;;1.40;;
3643;SDS011;1838;50.742;7.158;2022-12-26T00:13:43;12.63;;;1.90;;
3643;SDS011;1838;50.742;7.158;2022-12-26T00:16:10;5.30;;;2.07;;
3643;SDS011;1838;50.742;7.158;2022-12-26T00:18:37;3.13;;;1.80;;
3643;SDS011;1838;50.742;7.158;2022-12-26T00:21:04;4.40;;;2.13;;
3643;SDS011;1838;50.742;7.158;2022-12-26T00:23:31;2.70;;;1.60;;
3643;SDS011;1838;50.742;7.158;2022-12-26T00:26:00;3.80;;;1.97;;
3643;SDS011;1838;50.742;7.158;2022-12-26T00:28:27;5.30;;;2.50;;
3643;SDS011;1838;50.742;7.158;2022-12-26T00:30:53;5.80;;;2.17;;
3643;SDS011;1838;50.742;7.158;2022-12-26T00:33:19;2.33;;;1.87;;
3643;SDS011;1838;50.742;7.158;2022-12-26T00:35:44;3.13;;;1.90;;
3643;SDS011;1838;50.742;7.158;2022-12-26T00:38:10;5.47;;;1.87;;
3643;SDS011;1838;50.742;7.158;2022-12-26T00:40:35;3.10;;;2.67;;
3643;SDS011;1838;50.742;7.158;2022-12-26T00:43:06;3.40;;;2.27;;
3643;SDS011;1838;50.742;7.158;2022-12-26T00:45:32;2.77;;;1.70;;
3643;SDS011;1838;50.742;7.158;2022-12-26T00:47:57;7.43;;;2.67;;
3643;SDS011;1838;50.742;7.158;2022-12-26T00:50:23;6.70;;;2.30;;
3643;SDS011;1838;50.742;7.158;2022-12-26T00:52:49;4.13;;;2.63;;
3643;SDS011;1838;50.742;7.158;2022-12-26T00:55:14;3.13;;;2.33;;
3643;SDS011;1838;50.742;7.158;2022-12-26T00:57:40;5.50;;;2.27;;
3643;SDS011;1838;50.742;7.158;2022-12-26T01:00:05;4.03;;;2.37;;
3643;SDS011;1838;50.742;7.158;2022-12-26T01:02:32;3.43;;;2.53;;
3643;SDS011;1838;50.742;7.158;2022-12-26T01:05:07;4.70;;;2.30;;
3643;SDS011;1838;50.742;7.158;2022-12-26T01:07:34;3.47;;;2.10;;
3643;SDS011;1838;50.742;7.158;2022-12-26T01:10:02;4.17;;;2.33;;
3643;SDS011;1838;50.742;7.158;2022-12-26T01:12:28;3.80;;;2.13;;
3643;SDS011;1838;50.742;7.158;2022-12-26T01:14:55;5.60;;;2.00;;
3643;SDS011;1838;50.742;7.158;2022-12-26T01:17:21;6.23;;;2.63;;
3643;SDS011;1838;50.742;7.158;2022-12-26T01:19:47;3.73;;;2.33;;
3643;SDS011;1838;50.742;7.158;2022-12-26T01:22:13;10.97;;;2.60;;
3643;SDS011;1838;50.742;7.158;2022-12-26T01:24:38;3.07;;;2.10;;
3643;SDS011;1838;50.742;7.158;2022-12-26T01:27:04;4.90;;;2.33;;
3643;SDS011;1838;50.742;7.158;2022-12-26T01:29:29;2.63;;;2.30;;
3643;SDS011;1838;50.742;7.158;2022-12-26T01:31:55;4.17;;;2.20;;
3643;SDS011;1838;50.742;7.158;2022-12-26T01:34:20;3.10;;;2.03;;
3643;SDS011;1838;50.742;7.158;2022-12-26T01:36:46;4.80;;;2.77;;
3643;SDS011;1838;50.742;7.158;2022-12-26T01:39:11;3.57;;;2.00;;
3643;SDS011;1838;50.742;7.158;2022-12-26T01:41:37;3.37;;;1.93;;
3643;SDS011;1838;50.742;7.158;2022-12-26T01:44:04;4.37;;;2.00;;
3643;SDS011;1838;50.742;7.158;2022-12-26T01:46:48;3.30;;;2.23;;
3643;SDS011;1838;50.742;7.158;2022-12-26T01:49:16;6.43;;;3.20;;
3643;SDS011;1838;50.742;7.158;2022-12-26T01:51:52;4.10;;;2.40;;
3643;SDS011;1838;50.742;7.158;2022-12-26T01:54:23;4.47;;;1.97;;
3643;SDS011;1838;50.742;7.158;2022-12-26T01:56:51;3.00;;;2.20;;
3643;SDS011;1838;50.742;7.158;2022-12-26T01:59:18;4.77;;;2.00;;
3643;SDS011;1838;50.742;7.158;2022-12-26T02:01:48;2.70;;;2.00;;
3643;SDS011;1838;50.742;7.158;2022-12-26T02:04:16;7.07;;;2.03;;
3643;SDS011;1838;50.742;7.158;2022-12-26T02:07:05;4.60;;;1.90;;
3643;SDS011;1838;50.742;7.158;2022-12-26T02:09:31;4.53;;;2.40;;
3643;SDS011;1838;50.742;7.158;2022-12-26T02:11:58;3.33;;;2.20;;
3643;SDS011;1838;50.742;7.158;2022-12-26T02:14:31;4.70;;;2.10;;
3643;SDS011;1838;50.742;7.158;2022-12-26T02:16:57;3.60;;;2.20;;
3643;SDS011;1838;50.742;7.158;2022-12-26T02:27:55;4.20;;;2.73;;
3643;SDS011;1838;50.742;7.158;2022-12-26T02:44:32;8.23;;;2.33;;
3643;SDS011;1838;50.742;7.158;2022-12-26T02:47:32;3.67;;;2.50;;
3643;SDS011;1838;50.742;7.158;2022-12-26T02:53:10;6.70;;;2.77;;
3643;SDS011;1838;50.742;7.158;2022-12-26T02:56:05;2.93;;;2.33;;
3643;SDS011;1838;50.742;7.158;2022-12-26T03:01:44;8.73;;;2.30;;
3643;SDS011;1838;50.742;7.158;2022-12-26T03:04:32;3.17;;;2.13;;
3643;SDS011;1838;50.742;7.158;2022-12-26T03:07:20;4.43;;;2.60;;
3643;SDS011;1838;50.742;7.158;2022-12-26T03:10:13;5.53;;;2.20;;
3643;SDS011;1838;50.742;7.158;2022-12-26T03:13:03;7.40;;;2.27;;
3643;SDS011;1838;50.742;7.158;2022-12-26T03:15:35;3.73;;;2.13;;
3643;SDS011;1838;50.742;7.158;2022-12-26T03:18:24;8.93;;;2.27;;
3643;SDS011;1838;50.742;7.158;2022-12-26T03:20:52;4.67;;;2.20;;
3643;SDS011;1838;50.742;7.158;2022-12-26T03:23:18;4.80;;;2.47;;
3643;SDS011;1838;50.742;7.158;2022-12-26T03:28:38;4.30;;;2.17;;
3643;SDS011;1838;50.742;7.158;2022-12-26T03:31:06;4.00;;;2.10;;
3643;SDS011;1838;50.742;7.158;2022-12-26T03:33:34;2.60;;;2.10;;
3643;SDS011;1838;50.742;7.158;2022-12-26T03:42:12;5.83;;;2.30;;
3643;SDS011;1838;50.742;7.158;2022-12-26T03:57:40;6.70;;;2.50;;
3643;SDS011;1838;50.742;7.158;2022-12-26T04:00:33;2.63;;;2.00;;
3643;SDS011;1838;50.742;7.158;2022-12-26T04:03:19;3.80;;;2.03;;
3643;SDS011;1838;50.742;7.158;2022-12-26T04:06:07;4.77;;;2.00;;
3643;SDS011;1838;50.742;7.158;2022-12-26T04:09:01;5.20;;;1.67;;
3643;SDS011;1838;50.742;7.158;2022-12-26T04:11:55;2.87;;;1.93;;
3643;SDS011;1838;50.742;7.158;2022-12-26T04:14:47;6.23;;;1.83;;
3643;SDS011;1838;50.742;7.158;2022-12-26T04:17:40;2.90;;;1.70;;
3643;SDS011;1838;50.742;7.158;2022-12-26T04:20:37;7.00;;;2.03;;
3643;SDS011;1838;50.742;7.158;2022-12-26T04:23:19;4.17;;;1.77;;
3643;SDS011;1838;50.742;7.158;2022-12-26T04:29:00;2.30;;;1.40;;
3643;SDS011;1838;50.742;7.158;2022-12-26T04:31:45;3.60;;;1.83;;
3643;SDS011;1838;50.742;7.158;2022-12-26T04:34:51;2.70;;;1.77;;
3643;SDS011;1838;50.742;7.158;2022-12-26T04:37:45;5.00;;;1.50;;
3643;SDS011;1838;50.742;7.158;2022-12-26T04:40:33;3.73;;;1.70;;
3643;SDS011;1838;50.742;7.158;2022-12-26T04:43:23;4.60;;;2.30;;
3643;SDS011;1838;50.742;7.158;2022-12-26T04:46:09;2.93;;;2.00;;
3643;SDS011;1838;50.742;7.158;2022-12-26T04:48:40;3.30;;;1.57;;
3643;SDS011;1838;50.742;7.158;2022-12-26T04:51:26;2.40;;;1.87;;
3643;SDS011;1838;50.742;7.158;2022-12-26T04:53:52;4.90;;;1.63;;
3643;SDS011;1838;50.742;7.158;2022-12-26T04:56:17;6.97;;;1.70;;
3643;SDS011;1838;50.742;7.158;2022-12-26T04:58:43;5.20;;;2.07;;
3643;SDS011;1838;50.742;7.158;2022-12-26T05:01:08;6.93;;;2.17;;
3643;SDS011;1838;50.742;7.158;2022-12-26T05:03:53;6.63;;;2.33;;
3643;SDS011;1838;50.742;7.158;2022-12-26T05:06:37;7.87;;;1.80;;
3643;SDS011;1838;50.742;7.158;2022-12-26T05:09:21;4.80;;;2.10;;
3643;SDS011;1838;50.742;7.158;2022-12-26T05:11:58;3.33;;;1.70;;
3643;SDS011;1838;50.742;7.158;2022-12-26T05:14:28;3.20;;;2.13;;
3643;SDS011;1838;50.742;7.158;2022-12-26T05:16:56;3.70;;;2.00;;
3643;SDS011;1838;50.742;7.158;2022-12-26T05:19:40;4.27;;;2.03;;
3643;SDS011;1838;50.742;7.158;2022-12-26T05:22:25;3.90;;;2.20;;
3643;SDS011;1838;50.742;7.158;2022-12-26T05:25:13;10.20;;;2.70;;
3643;SDS011;1838;50.742;7.158;2022-12-26T05:27:59;4.10;;;2.90;;
3643;SDS011;1838;50.742;7.158;2022-12-26T05:30:43;2.50;;;1.80;;
3643;SDS011;1838;50.742;7.158;2022-12-26T05:33:09;7.87;;;2.70;;
3643;SDS011;1838;50.742;7.158;2022-12-26T05:35:53;3.70;;;2.70;;
3643;SDS011;1838;50.742;7.158;2022-12-26T05:38:18;3.10;;;2.20;;
3643;SDS011;1838;50.742;7.158;2022-12-26T05:40:44;5.50;;;2.23;;
3643;SDS011;1838;50.742;7.158;2022-12-26T05:43:09;3.63;;;2.00;;
3643;SDS011;1838;50.742;7.158;2022-12-26T05:45:35;5.30;;;2.07;;
3643;SDS011;1838;50.742;7.158;2022-12-26T05:48:00;5.27;;;2.40;;
3643;SDS011;1838;50.742;7.158;2022-12-26T05:50:26;3.63;;;2.07;;
3643;SDS011;1838;50.742;7.158;2022-12-26T05:52:52;3.33;;;2.00;;
3643;SDS011;1838;50.742;7.158;2022-12-26T05:55:21;2.80;;;1.80;;
3643;SDS011;1838;50.742;7.158;2022-12-26T05:57:48;3.40;;;1.80;;
3643;SDS011;1838;50.742;7.158;2022-12-26T06:00:14;4.83;;;2.13;;
3643;SDS011;1838;50.742;7.158;2022-12-26T06:02:40;2.30;;;1.60;;
3643;SDS011;1838;50.742;7.158;2022-12-26T06:05:06;3.83;;;1.90;;
3643;SDS011;1838;50.742;7.158;2022-12-26T06:07:32;4.23;;;2.23;;
3643;SDS011;1838;50.742;7.158;2022-12-26T06:09:57;2.50;;;2.03;;
3643;SDS011;1838;50.742;7.158;2022-12-26T06:12:23;4.83;;;2.43;;
3643;SDS011;1838;50.742;7.158;2022-12-26T06:14:48;3.80;;;2.20;;
3643;SDS011;1838;50.742;7.158;2022-12-26T06:17:14;2.70;;;1.90;;
3643;SDS011;1838;50.742;7.158;2022-12-26T06:19:39;4.93;;;2.30;;
3643;SDS011;1838;50.742;7.158;2022-12-26T06:22:05;8.53;;;2.40;;
3643;SDS011;1838;50.742;7.158;2022-12-26T06:24:30;4.23;;;2.10;;
3643;SDS011;1838;50.742;7.158;2022-12-26T06:26:56;2.20;;;1.87;;
3643;SDS011;1838;50.742;7.158;2022-12-26T06:29:21;3.83;;;2.57;;
3643;SDS011;1838;50.742;7.158;2022-12-26T06:31:47;4.63;;;2.50;;
3643;SDS011;1838;50.742;7.158;2022-12-26T06:34:12;4.60;;;2.10;;
3643;SDS011;1838;50.742;7.158;2022-12-26T06:36:38;2.00;;;1.53;;
3643;SDS011;1838;50.742;7.158;2022-12-26T06:39:03;3.57;;;2.10;;
3643;SDS011;1838;50.742;7.158;2022-12-26T06:41:29;2.03;;;1.33;;
3643;SDS011;1838;50.742;7.158;2022-12-26T06:43:54;4.40;;;1.60;;
3643;SDS011;1838;50.742;7.158;2022-12-26T06:46:21;6.20;;;2.93;;
3643;SDS011;1838;50.742;7.158;2022-12-26T06:48:48;4.10;;;1.40;;
3643;SDS011;1838;50.742;7.158;2022-12-26T06:51:14;1.63;;;1.03;;
3643;SDS011;1838;50.742;7.158;2022-12-26T06:53:43;2.37;;;1.13;;
3643;SDS011;1838;50.742;7.158;2022-12-26T06:56:11;1.70;;;1.00;;
3643;SDS011;1838;50.742;7.158;2022-12-26T06:58:38;2.50;;;1.17;;
3643;SDS011;1838;50.742;7.158;2022-12-26T07:01:22;2.60;;;1.03;;
3643;SDS011;1838;50.742;7.158;2022-12-26T07:03:48;1.50;;;0.90;;
3643;SDS011;1838;50.742;7.158;2022-12-26T07:06:29;1.60;;;0.80;;
3643;SDS011;1838;50.742;7.158;2022-12-26T07:08:56;1.70;;;0.90;;
3643;SDS011;1838;50.742;7.158;2022-12-26T07:11:30;3.47;;;1.10;;
3643;SDS011;1838;50.742;7.158;2022-12-26T07:13:58;2.00;;;0.90;;
3643;SDS011;1838;50.742;7.158;2022-12-26T07:16:24;2.13;;;0.90;;
3643;SDS011;1838;50.742;7.158;2022-12-26T07:18:53;1.80;;;0.90;;
3643;SDS011;1838;50.742;7.158;2022-12-26T07:21:20;2.17;;;0.83;;
3643;SDS011;1838;50.742;7.158;2022-12-26T07:23:46;2.00;;;1.00;;
3643;SDS011;1838;50.742;7.158;2022-12-26T07:26:11;2.37;;;1.37;;
3643;SDS011;1838;50.742;7.158;2022-12-26T07:28:37;2.97;;;1.10;;
3643;SDS011;1838;50.742;7.158;2022-12-26T07:31:03;1.70;;;0.90;;
3643;SDS011;1838;50.742;7.158;2022-12-26T07:33:29;1.90;;;1.00;;
3643;SDS011;1838;50.742;7.158;2022-12-26T07:36:01;2.23;;;1.20;;
3643;SDS011;1838;50.742;7.158;2022-12-26T07:38:28;2.40;;;1.80;;
3643;SDS011;1838;50.742;7.158;2022-12-26T07:40:54;1.83;;;0.87;;
3643;SDS011;1838;50.742;7.158;2022-12-26T07:43:21;2.30;;;1.67;;
3643;SDS011;1838;50.742;7.158;2022-12-26T07:45:47;2.90;;;1.07;;
3643;SDS011;1838;50.742;7.158;2022-12-26T07:48:12;2.90;;;0.90;;
3643;SDS011;1838;50.742;7.158;2022-12-26T07:50:38;1.57;;;0.80;;
3643;SDS011;1838;50.742;7.158;2022-12-26T07:53:04;2.57;;;1.10;;
3643;SDS011;1838;50.742;7.158;2022-12-26T07:55:29;3.20;;;1.47;;
3643;SDS011;1838;50.742;7.158;2022-12-26T07:57:55;1.70;;;1.00;;
3643;SDS011;1838;50.742;7.158;2022-12-26T08:00:20;1.80;;;1.33;;
3643;SDS011;1838;50.742;7.158;2022-12-26T08:02:46;1.47;;;0.90;;
3643;SDS011;1838;50.742;7.158;2022-12-26T08:05:13;4.40;;;2.10;;
3643;SDS011;1838;50.742;7.158;2022-12-26T08:07:39;3.53;;;1.33;;
3643;SDS011;1838;50.742;7.158;2022-12-26T08:10:05;2.20;;;1.40;;
3643;SDS011;1838;50.742;7.158;2022-12-26T08:12:31;2.93;;;1.20;;
3643;SDS011;1838;50.742;7.158;2022-12-26T08:14:57;2.07;;;1.30;;
3643;SDS011;1838;50.742;7.158;2022-12-26T08:17:23;1.80;;;1.10;;
3643;SDS011;1838;50.742;7.158;2022-12-26T08:19:48;4.33;;;1.77;;
3643;SDS011;1838;50.742;7.158;2022-12-26T08:22:14;2.43;;;1.63;;
3643;SDS011;1838;50.742;7.158;2022-12-26T08:24:39;4.90;;;2.67;;
3643;SDS011;1838;50.742;7.158;2022-12-26T08:27:05;2.83;;;2.03;;
3643;SDS011;1838;50.742;7.158;2022-12-26T08:29:30;2.00;;;1.40;;
3643;SDS011;1838;50.742;7.158;2022-12-26T08:31:56;6.23;;;3.00;;
3643;SDS011;1838;50.742;7.158;2022-12-26T08:34:21;2.13;;;1.47;;
3643;SDS011;1838;50.742;7.158;2022-12-26T08:36:50;3.33;;;1.40;;
3643;SDS011;1838;50.742;7.158;2022-12-26T08:39:16;1.87;;;1.17;;
3643;SDS011;1838;50.742;7.158;2022-12-26T08:41:42;2.80;;;1.67;;
3643;SDS011;1838;50.742;7.158;2022-12-26T08:44:09;3.90;;;1.73;;
3643;SDS011;1838;50.742;7.158;2022-12-26T08:46:37;2.20;;;1.10;;
3643;SDS011;1838;50.742;7.158;2022-12-26T08:49:02;3.03;;;1.40;;
3643;SDS011;1838;50.742;7.158;2022-12-26T08:51:28;6.10;;;1.60;;
3643;SDS011;1838;50.742;7.158;2022-12-26T08:53:53;2.13;;;1.10;;
3643;SDS011;1838;50.742;7.158;2022-12-26T08:56:20;4.67;;;1.70;;
3643;SDS011;1838;50.742;7.158;2022-12-26T08:58:48;2.40;;;1.80;;
3643;SDS011;1838;50.742;7.158;2022-12-26T09:01:15;2.80;;;1.70;;
3643;SDS011;1838;50.742;7.158;2022-12-26T09:03:53;3.13;;;1.60;;
3643;SDS011;1838;50.742;7.158;2022-12-26T09:06:20;2.13;;;1.50;;
3643;SDS011;1838;50.742;7.158;2022-12-26T09:08:46;2.80;;;2.20;;
3643;SDS011;1838;50.742;7.158;2022-12-26T09:11:19;1.80;;;1.50;;
3643;SDS011;1838;50.742;7.158;2022-12-26T09:13:50;3.20;;;2.53;;
3643;SDS011;1838;50.742;7.158;2022-12-26T09:16:17;3.17;;;1.77;;
3643;SDS011;1838;50.742;7.158;2022-12-26T09:18:45;2.47;;;2.20;;
3643;SDS011;1838;50.742;7.158;2022-12-26T09:21:12;3.70;;;2.00;;
3643;SDS011;1838;50.742;7.158;2022-12-26T09:23:40;3.13;;;2.00;;
3643;SDS011;1838;50.742;7.158;2022-12-26T09:26:08;2.30;;;2.10;;
3643;SDS011;1838;50.742;7.158;2022-12-26T09:28:36;7.70;;;1.63;;
3643;SDS011;1838;50.742;7.158;2022-12-26T09:31:06;3.13;;;2.03;;
3643;SDS011;1838;50.742;7.158;2022-12-26T09:33:36;2.10;;;1.63;;
3643;SDS011;1838;50.742;7.158;2022-12-26T09:36:05;2.03;;;1.67;;
3643;SDS011;1838;50.742;7.158;2022-12-26T09:38:33;2.60;;;1.27;;
3643;SDS011;1838;50.742;7.158;2022-12-26T09:46:31;3.50;;;1.63;;
3643;SDS011;1838;50.742;7.158;2022-12-26T09:49:11;2.87;;;1.60;;
3643;SDS011;1838;50.742;7.158;2022-12-26T09:51:45;2.13;;;1.50;;
3643;SDS011;1838;50.742;7.158;2022-12-26T09:54:18;2.47;;;1.00;;
3643;SDS011;1838;50.742;7.158;2022-12-26T09:56:55;3.20;;;1.40;;
3643;SDS011;1838;50.742;7.158;2022-12-26T09:59:22;4.60;;;1.67;;
3643;SDS011;1838;50.742;7.158;2022-12-26T10:01:50;2.93;;;1.63;;
3643;SDS011;1838;50.742;7.158;2022-12-26T10:04:20;3.03;;;1.80;;
3643;SDS011;1838;50.742;7.158;2022-12-26T10:06:58;2.70;;;1.70;;
3643;SDS011;1838;50.742;7.158;2022-12-26T10:09:48;2.00;;;1.40;;
3643;SDS011;1838;50.742;7.158;2022-12-26T10:12:35;2.60;;;2.00;;
3643;SDS011;1838;50.742;7.158;2022-12-26T10:15:42;2.37;;;1.60;;
3643;SDS011;1838;50.742;7.158;2022-12-26T10:18:21;3.40;;;1.67;;
3643;SDS011;1838;50.742;7.158;2022-12-26T10:21:08;3.03;;;1.57;;
3643;SDS011;1838;50.742;7.158;2022-12-26T10:23:38;5.07;;;1.97;;
3643;SDS011;1838;50.742;7.158;2022-12-26T10:26:08;3.03;;;1.30;;
3643;SDS011;1838;50.742;7.158;2022-12-26T10:28:57;2.60;;;1.53;;
3643;SDS011;1838;50.742;7.158;2022-12-26T10:34:06;2.43;;;1.60;;
3643;SDS011;1838;50.742;7.158;2022-12-26T10:36:34;3.70;;;1.30;;
3643;SDS011;1838;50.742;7.158;2022-12-26T10:39:04;1.90;;;0.90;;
3643;SDS011;1838;50.742;7.158;2022-12-26T10:41:46;1.87;;;1.10;;
3643;SDS011;1838;50.742;7.158;2022-12-26T10:44:16;5.53;;;1.20;;
3643;SDS011;1838;50.742;7.158;2022-12-26T10:46:46;5.07;;;1.40;;
3643;SDS011;1838;50.742;7.158;2022-12-26T10:49:31;1.97;;;1.00;;
3643;SDS011;1838;50.742;7.158;2022-12-26T10:51:58;6.50;;;1.10;;
3643;SDS011;1838;50.742;7.158;2022-12-26T10:54:25;1.67;;;1.07;;
3643;SDS011;1838;50.742;7.158;2022-12-26T10:56:52;3.80;;;1.17;;
3643;SDS011;1838;50.742;7.158;2022-12-26T10:59:43;3.70;;;0.90;;
3643;SDS011;1838;50.742;7.158;2022-12-26T11:02:21;2.37;;;1.13;;
3643;SDS011;1838;50.742;7.158;2022-12-26T11:04:59;1.73;;;0.90;;
3643;SDS011;1838;50.742;7.158;2022-12-26T11:07:36;1.97;;;0.87;;
3643;SDS011;1838;50.742;7.158;2022-12-26T11:10:11;2.60;;;1.17;;
3643;SDS011;1838;50.742;7.158;2022-12-26T11:12:53;4.43;;;1.07;;
3643;SDS011;1838;50.742;7.158;2022-12-26T11:15:37;2.47;;;1.10;;
3643;SDS011;1838;50.742;7.158;2022-12-26T11:18:15;2.40;;;0.83;;
3643;SDS011;1838;50.742;7.158;2022-12-26T11:21:10;4.00;;;1.07;;
3643;SDS011;1838;50.742;7.158;2022-12-26T11:23:42;2.87;;;1.20;;
3643;SDS011;1838;50.742;7.158;2022-12-26T11:28:45;4.13;;;1.03;;
3643;SDS011;1838;50.742;7.158;2022-12-26T11:31:23;3.37;;;1.17;;
3643;SDS011;1838;50.742;7.158;2022-12-26T11:33:51;1.70;;;0.93;;
3643;SDS011;1838;50.742;7.158;2022-12-26T11:36:19;4.63;;;1.13;;
3643;SDS011;1838;50.742;7.158;2022-12-26T11:39:00;5.57;;;1.37;;
3643;SDS011;1838;50.742;7.158;2022-12-26T11:46:35;12.33;;;1.07;;
3643;SDS011;1838;50.742;7.158;2022-12-26T11:49:39;4.20;;;1.00;;
3643;SDS011;1838;50.742;7.158;2022-12-26T11:54:55;2.10;;;1.00;;
3643;SDS011;1838;50.742;7.158;2022-12-26T11:57:21;2.93;;;1.00;;
3643;SDS011;1838;50.742;7.158;2022-12-26T11:59:54;2.60;;;0.93;;
3643;SDS011;1838;50.742;7.158;2022-12-26T12:02:43;2.43;;;0.87;;
3643;SDS011;1838;50.742;7.158;2022-12-26T12:05:22;4.33;;;1.60;;
3643;SDS011;1838;50.742;7.158;2022-12-26T12:16:38;1.57;;;0.80;;
3643;SDS011;1838;50.742;7.158;2022-12-26T12:25:10;3.50;;;0.83;;
3643;SDS011;1838;50.742;7.158;2022-12-26T12:28:34;4.37;;;1.17;;
3643;SDS011;1838;50.742;7.158;2022-12-26T12:36:16;2.30;;;1.10;;
3643;SDS011;1838;50.742;7.158;2022-12-26T12:49:58;2.73;;;1.00;;
3643;SDS011;1838;50.742;7.158;2022-12-26T12:52:37;4.00;;;1.10;;
3643;SDS011;1838;50.742;7.158;2022-12-26T12:55:36;1.80;;;0.80;;
3643;SDS011;1838;50.742;7.158;2022-12-26T12:58:21;2.30;;;1.13;;
3643;SDS011;1838;50.742;7.158;2022-12-26T13:01:13;6.03;;;1.43;;
3643;SDS011;1838;50.742;7.158;2022-12-26T13:03:50;2.20;;;0.90;;
3643;SDS011;1838;50.742;7.158;2022-12-26T13:06:24;2.17;;;1.20;;
3643;SDS011;1838;50.742;7.158;2022-12-26T13:09:13;2.00;;;1.00;;
3643;SDS011;1838;50.742;7.158;2022-12-26T13:12:05;1.50;;;0.90;;
3643;SDS011;1838;50.742;7.158;2022-12-26T13:14:37;3.13;;;1.30;;
3643;SDS011;1838;50.742;7.158;2022-12-26T13:17:07;5.57;;;1.00;;
3643;SDS011;1838;50.742;7.158;2022-12-26T13:19:37;2.10;;;0.87;;
3643;SDS011;1838;50.742;7.158;2022-12-26T13:22:19;3.63;;;1.00;;
3643;SDS011;1838;50.742;7.158;2022-12-26T13:24:55;2.13;;;1.10;;
3643;SDS011;1838;50.742;7.158;2022-12-26T13:27:24;3.70;;;1.00;;
3643;SDS011;1838;50.742;7.158;2022-12-26T13:30:00;3.50;;;1.03;;
3643;SDS011;1838;50.742;7.158;2022-12-26T13:32:31;5.00;;;1.27;;
3643;SDS011;1838;50.742;7.158;2022-12-26T13:34:58;3.93;;;0.93;;
3643;SDS011;1838;50.742;7.158;2022-12-26T13:39:57;1.90;;;0.70;;
3643;SDS011;1838;50.742;7.158;2022-12-26T13:42:46;1.60;;;0.90;;
3643;SDS011;1838;50.742;7.158;2022-12-26T13:45:50;2.03;;;0.77;;
3643;SDS011;1838;50.742;7.158;2022-12-26T13:53:31;1.60;;;0.87;;
3643;SDS011;1838;50.742;7.158;2022-12-26T13:56:02;1.40;;;0.70;;
3643;SDS011;1838;50.742;7.158;2022-12-26T13:58:43;2.50;;;0.80;;
3643;SDS011;1838;50.742;7.158;2022-12-26T14:01:54;2.97;;;0.80;;
3643;SDS011;1838;50.742;7.158;2022-12-26T14:04:23;3.77;;;1.20;;
3643;SDS011;1838;50.742;7.158;2022-12-26T14:07:21;6.27;;;1.03;;
3643;SDS011;1838;50.742;7.158;2022-12-26T14:10:00;2.97;;;1.03;;
3643;SDS011;1838;50.742;7.158;2022-12-26T14:12:37;3.70;;;1.60;;
3643;SDS011;1838;50.742;7.158;2022-12-26T14:23:51;3.23;;;1.33;;
3643;SDS011;1838;50.742;7.158;2022-12-26T14:26:30;2.23;;;1.10;;
3643;SDS011;1838;50.742;7.158;2022-12-26T14:29:21;1.77;;;0.60;;
3643;SDS011;1838;50.742;7.158;2022-12-26T14:35:00;2.90;;;1.10;;
3643;SDS011;1838;50.742;7.158;2022-12-26T14:37:54;2.50;;;1.03;;
3643;SDS011;1838;50.742;7.158;2022-12-26T14:40:28;2.40;;;1.60;;
3643;SDS011;1838;50.742;7.158;2022-12-26T14:43:09;1.53;;;0.80;;
3643;SDS011;1838;50.742;7.158;2022-12-26T14:53:26;4.10;;;1.40;;
3643;SDS011;1838;50.742;7.158;2022-12-26T14:58:23;1.80;;;1.10;;
3643;SDS011;1838;50.742;7.158;2022-12-26T15:01:41;5.90;;;1.97;;
3643;SDS011;1838;50.742;7.158;2022-12-26T15:20:22;5.60;;;2.43;;
3643;SDS011;1838;50.742;7.158;2022-12-26T15:31:53;4.80;;;2.37;;
3643;SDS011;1838;50.742;7.158;2022-12-26T15:40:15;3.57;;;2.13;;
3643;SDS011;1838;50.742;7.158;2022-12-26T15:45:35;11.13;;;2.60;;
3643;SDS011;1838;50.742;7.158;2022-12-26T15:59:30;7.73;;;3.40;;
3643;SDS011;1838;50.742;7.158;2022-12-26T16:07:45;12.07;;;2.40;;
3643;SDS011;1838;50.742;7.158;2022-12-26T16:15:43;4.97;;;1.70;;
3643;SDS011;1838;50.742;7.158;2022-12-26T16:18:19;7.10;;;2.23;;
3643;SDS011;1838;50.742;7.158;2022-12-26T16:20:53;3.17;;;1.87;;
3643;SDS011;1838;50.742;7.158;2022-12-26T16:23:44;4.57;;;2.37;;
3643;SDS011;1838;50.742;7.158;2022-12-26T16:26:20;3.75;;;1.70;;
3643;SDS011;1838;50.742;7.158;2022-12-26T16:28:52;10.53;;;2.10;;
3643;SDS011;1838;50.742;7.158;2022-12-26T16:31:20;11.43;;;3.40;;
3643;SDS011;1838;50.742;7.158;2022-12-26T16:33:49;4.10;;;2.23;;
3643;SDS011;1838;50.742;7.158;2022-12-26T16:36:18;3.60;;;2.30;;
3643;SDS011;1838;50.742;7.158;2022-12-26T16:38:49;4.20;;;2.40;;
3643;SDS011;1838;50.742;7.158;2022-12-26T16:41:26;5.73;;;2.57;;
3643;SDS011;1838;50.742;7.158;2022-12-26T16:43:54;3.77;;;2.20;;
3643;SDS011;1838;50.742;7.158;2022-12-26T16:46:22;4.20;;;2.40;;
3643;SDS011;1838;50.742;7.158;2022-12-26T16:48:53;2.60;;;2.00;;
3643;SDS011;1838;50.742;7.158;2022-12-26T16:54:52;5.67;;;2.00;;
3643;SDS011;1838;50.742;7.158;2022-12-26T16:57:11;3.40;;;2.60;;
3643;SDS011;1838;50.742;7.158;2022-12-26T17:02:52;3.50;;;2.77;;
3643;SDS011;1838;50.742;7.158;2022-12-26T17:05:16;3.10;;;1.90;;
3643;SDS011;1838;50.742;7.158;2022-12-26T17:07:47;10.67;;;2.63;;
3643;SDS011;1838;50.742;7.158;2022-12-26T17:10:18;5.77;;;2.13;;
3643;SDS011;1838;50.742;7.158;2022-12-26T17:12:49;5.23;;;2.13;;
3643;SDS011;1838;50.742;7.158;2022-12-26T17:15:17;8.50;;;3.07;;
3643;SDS011;1838;50.742;7.158;2022-12-26T17:17:45;3.67;;;1.80;;
3643;SDS011;1838;50.742;7.158;2022-12-26T17:22:46;4.00;;;2.90;;
3643;SDS011;1838;50.742;7.158;2022-12-26T17:25:17;10.60;;;4.50;;
3643;SDS011;1838;50.742;7.158;2022-12-26T17:30:51;6.10;;;3.17;;
3643;SDS011;1838;50.742;7.158;2022-12-26T17:33:27;11.50;;;4.23;;
3643;SDS011;1838;50.742;7.158;2022-12-26T17:36:01;7.00;;;4.20;;
3643;SDS011;1838;50.742;7.158;2022-12-26T17:38:31;9.97;;;4.40;;
3643;SDS011;1838;50.742;7.158;2022-12-26T17:40:59;10.40;;;3.80;;
3643;SDS011;1838;50.742;7.158;2022-12-26T17:43:35;5.13;;;4.50;;
3643;SDS011;1838;50.742;7.158;2022-12-26T17:46:02;8.80;;;5.30;;
3643;SDS011;1838;50.742;7.158;2022-12-26T17:48:28;13.90;;;5.70;;
3643;SDS011;1838;50.742;7.158;2022-12-26T17:50:55;11.03;;;5.13;;
3643;SDS011;1838;50.742;7.158;2022-12-26T17:55:55;11.57;;;5.93;;
3643;SDS011;1838;50.742;7.158;2022-12-26T17:58:22;14.53;;;7.10;;
3643;SDS011;1838;50.742;7.158;2022-12-26T18:00:48;9.40;;;5.70;;
3643;SDS011;1838;50.742;7.158;2022-12-26T18:03:14;6.23;;;3.40;;
3643;SDS011;1838;50.742;7.158;2022-12-26T18:05:40;5.43;;;3.43;;
3643;SDS011;1838;50.742;7.158;2022-12-26T18:08:07;7.23;;;3.43;;
3643;SDS011;1838;50.742;7.158;2022-12-26T18:10:36;6.83;;;3.80;;
3643;SDS011;1838;50.742;7.158;2022-12-26T18:13:02;4.57;;;2.63;;
3643;SDS011;1838;50.742;7.158;2022-12-26T18:15:28;18.53;;;3.83;;
3643;SDS011;1838;50.742;7.158;2022-12-26T18:17:55;8.53;;;3.50;;
3643;SDS011;1838;50.742;7.158;2022-12-26T18:20:27;12.17;;;3.33;;
3643;SDS011;1838;50.742;7.158;2022-12-26T18:22:54;9.73;;;3.30;;
3643;SDS011;1838;50.742;7.158;2022-12-26T18:25:22;7.47;;;2.67;;
3643;SDS011;1838;50.742;7.158;2022-12-26T18:27:49;9.10;;;3.10;;
3643;SDS011;1838;50.742;7.158;2022-12-26T18:30:19;11.20;;;3.87;;
3643;SDS011;1838;50.742;7.158;2022-12-26T18:32:49;4.10;;;2.70;;
3643;SDS011;1838;50.742;7.158;2022-12-26T18:35:17;9.00;;;4.10;;
3643;SDS011;1838;50.742;7.158;2022-12-26T18:37:45;4.97;;;3.30;;
3643;SDS011;1838;50.742;7.158;2022-12-26T18:40:32;7.27;;;3.80;;
3643;SDS011;1838;50.742;7.158;2022-12-26T18:43:00;9.43;;;3.57;;
3643;SDS011;1838;50.742;7.158;2022-12-26T18:45:27;5.93;;;3.80;;
3643;SDS011;1838;50.742;7.158;2022-12-26T18:47:53;13.53;;;3.80;;
3643;SDS011;1838;50.742;7.158;2022-12-26T18:50:18;7.87;;;4.20;;
3643;SDS011;1838;50.742;7.158;2022-12-26T18:52:44;10.97;;;3.87;;
3643;SDS011;1838;50.742;7.158;2022-12-26T18:55:10;10.70;;;4.43;;
3643;SDS011;1838;50.742;7.158;2022-12-26T18:57:35;12.57;;;4.43;;
3643;SDS011;1838;50.742;7.158;2022-12-26T19:00:02;8.67;;;3.93;;
3643;SDS011;1838;50.742;7.158;2022-12-26T19:02:28;7.10;;;3.70;;
3643;SDS011;1838;50.742;7.158;2022-12-26T19:04:53;22.00;;;4.50;;
3643;SDS011;1838;50.742;7.158;2022-12-26T19:07:19;11.57;;;4.93;;
3643;SDS011;1838;50.742;7.158;2022-12-26T19:09:45;11.70;;;4.37;;
3643;SDS011;1838;50.742;7.158;2022-12-26T19:12:13;12.13;;;3.80;;